createdAt,value
2022-08-09T00:00:13.857Z,100921.00
2022-08-09T00:02:47.315Z,100920.97
2022-08-09T00:06:18.956Z,100931.59
2022-08-09T00:08:09.672Z,100928.06
2022-08-09T00:10:36.861Z,100929.81
2022-08-09T00:13:17.652Z,100929.84
2022-08-09T00:15:58.986Z,100933.34
2022-08-09T00:18:29.028Z,100927.19
2022-08-09T00:20:55.705Z,100921.84
2022-08-09T00:23:56.056Z,100929.75
2022-08-09T00:26:11.283Z,100928.91
2022-08-09T00:28:40.092Z,100934.19
2022-08-09T00:31:09.374Z,100928.03
2022-08-09T00:33:55.127Z,100932.41
2022-08-09T00:36:29.811Z,100931.56
2022-08-09T00:38:57.978Z,100932.41
2022-08-09T00:44:19.183Z,100935.06
2022-08-09T00:44:24.893Z,100932.41
2022-08-09T00:46:56.865Z,100941.25
2022-08-09T00:49:28.636Z,100932.44
2022-08-09T00:52:05.278Z,100930.66
2022-08-09T00:54:36.490Z,100928.91
2022-08-09T00:57:10.764Z,100935.09
2022-08-09T00:59:46.747Z,100940.41
2022-08-09T01:02:21.071Z,100946.56
2022-08-09T01:05:22.224Z,100941.25
2022-08-09T01:08:25.766Z,100943.03
2022-08-09T01:11:18.665Z,100939.53
2022-08-09T01:14:00.034Z,100942.19
2022-08-09T01:16:35.342Z,100937.78
2022-08-09T01:19:17.064Z,100943.06
2022-08-09T01:22:35.644Z,100938.69
2022-08-09T01:25:24.882Z,100945.72
2022-08-09T01:27:57.885Z,100936.03
2022-08-09T01:30:35.772Z,100941.31
2022-08-09T01:33:17.225Z,100936.03
2022-08-09T01:35:43.657Z,100940.44
2022-08-09T01:38:16.561Z,100936.88
2022-08-09T01:41:17.161Z,100937.72
2022-08-09T01:43:50.721Z,100945.63
2022-08-09T01:46:26.806Z,100943.94
2022-08-09T01:48:57.253Z,100946.56
2022-08-09T01:51:32.472Z,100951.00
2022-08-09T01:54:02.097Z,100951.00
2022-08-09T01:56:33.228Z,100950.13
2022-08-09T01:59:03.903Z,100953.66
2022-08-09T02:01:59.230Z,100948.38
2022-08-09T02:04:21.841Z,100953.66
2022-08-09T02:07:18.286Z,100948.38
2022-08-09T02:10:06.835Z,100949.25
2022-08-09T02:12:35.565Z,100954.56
2022-08-09T02:15:06.249Z,100955.44
2022-08-09T02:18:09.956Z,100950.16
2022-08-09T02:20:26.448Z,100943.97
2022-08-09T02:23:08.994Z,100945.75
2022-08-09T02:25:42.752Z,100938.69
2022-08-09T02:28:29.503Z,100933.41
2022-08-09T02:31:12.126Z,100937.81
2022-08-09T02:34:06.629Z,100937.81
2022-08-09T02:36:39.129Z,100937.81
2022-08-09T02:39:33.443Z,100936.06
2022-08-09T02:42:05.641Z,100933.41
2022-08-09T02:44:37.344Z,100944.00
2022-08-09T02:47:08.356Z,100930.72
2022-08-09T02:50:01.822Z,100938.66
2022-08-09T02:52:36.282Z,100937.78
2022-08-09T02:55:20.821Z,100948.38
2022-08-09T02:58:32.355Z,100950.16
2022-08-09T03:00:57.669Z,100949.25
2022-08-09T03:04:12.947Z,100950.16
2022-08-09T03:06:15.994Z,100940.44
2022-08-09T03:08:47.540Z,100940.44
2022-08-09T03:11:30.112Z,100939.56
2022-08-09T03:14:06.908Z,100933.38
2022-08-09T03:16:37.404Z,100927.19
2022-08-09T03:19:14.545Z,100935.13
2022-08-09T03:21:57.936Z,100929.84
2022-08-09T03:24:25.196Z,100938.66
2022-08-09T03:27:10.739Z,100936.00
2022-08-09T03:29:56.980Z,100936.88
2022-08-09T03:32:26.137Z,100940.44
2022-08-09T03:34:54.231Z,100942.19
2022-08-09T03:37:56.206Z,100937.78
2022-08-09T03:40:13.026Z,100942.19
2022-08-09T03:42:43.086Z,100950.13
2022-08-09T03:45:10.826Z,100945.69
2022-08-09T03:47:40.244Z,100952.75
2022-08-09T03:50:10.915Z,100951.00
2022-08-09T03:52:40.573Z,100953.63
2022-08-09T03:55:10.585Z,100950.09
2022-08-09T03:57:53.674Z,100953.63
2022-08-09T04:00:29.649Z,100957.16
2022-08-09T04:02:58.705Z,100960.69
2022-08-09T04:05:27.761Z,100965.13
2022-08-09T04:07:57.170Z,100958.03
2022-08-09T04:10:29.224Z,100963.31
2022-08-09T04:13:01.102Z,100965.94
2022-08-09T04:16:17.965Z,100965.94
2022-08-09T04:18:19.213Z,100964.13
2022-08-09T04:20:48.042Z,100964.97
2022-08-09T04:23:16.580Z,100963.16
2022-08-09T04:25:44.467Z,100973.75
2022-08-09T04:28:16.589Z,100971.00
2022-08-09T04:31:05.673Z,100973.56
2022-08-09T04:33:52.750Z,100969.06
2022-08-09T04:36:28.155Z,100976.00
2022-08-09T04:38:55.883Z,100984.78
2022-08-09T04:41:23.713Z,100983.78
2022-08-09T04:44:06.075Z,100974.84
2022-08-09T04:46:37.596Z,100980.13
2022-08-09T04:49:30.229Z,100978.25
2022-08-09T04:52:07.365Z,100977.19
2022-08-09T04:54:34.090Z,100984.22
2022-08-09T04:57:00.506Z,100993.84
2022-08-09T04:59:30.725Z,100994.66
2022-08-09T05:01:57.286Z,100996.31
2022-08-09T05:04:23.739Z,100995.31
2022-08-09T05:06:58.226Z,101004.78
2022-08-09T05:09:24.879Z,100997.38
2022-08-09T05:11:51.429Z,101009.56
2022-08-09T05:14:18.445Z,101009.47
2022-08-09T05:16:58.803Z,101014.06
2022-08-09T05:19:38.400Z,101009.59
2022-08-09T05:22:35.876Z,101011.38
2022-08-09T05:25:02.582Z,101011.34
2022-08-09T05:27:30.235Z,101013.97
2022-08-09T05:29:57.489Z,101012.09
2022-08-09T05:32:25.718Z,101020.84
2022-08-09T05:34:52.177Z,101017.16
2022-08-09T05:37:18.714Z,101020.38
2022-08-09T05:39:45.155Z,101026.41
2022-08-09T05:42:16.915Z,101020.63
2022-08-09T05:44:50.779Z,101020.34
2022-08-09T05:47:17.886Z,101020.19
2022-08-09T05:50:25.969Z,101026.38
2022-08-09T05:52:32.020Z,101023.38
2022-08-09T05:55:03.017Z,101019.50
2022-08-09T05:57:51.280Z,101013.06
2022-08-09T06:00:23.929Z,101028.13
2022-08-09T06:02:54.710Z,101028.66
2022-08-09T06:05:50.311Z,101027.50
2022-08-09T06:08:11.172Z,101029.13
2022-08-09T06:10:37.926Z,101028.00
2022-08-09T06:13:12.421Z,101027.09
2022-08-09T06:15:46.854Z,101028.06
2022-08-09T06:18:13.749Z,101032.88
2022-08-09T06:20:42.582Z,101024.84
2022-08-09T06:23:11.967Z,101029.31
2022-08-09T06:25:42.030Z,101030.06
2022-08-09T06:28:09.948Z,101034.09
2022-08-09T06:30:36.350Z,101040.97
2022-08-09T06:33:30.280Z,101039.97
2022-08-09T06:35:57.386Z,101026.59
2022-08-09T06:38:37.136Z,101030.03
2022-08-09T06:41:04.057Z,101036.56
2022-08-09T06:43:34.120Z,101036.16
2022-08-09T06:46:06.432Z,101032.00
2022-08-09T06:48:37.222Z,101036.34
2022-08-09T06:51:11.059Z,101041.50
2022-08-09T06:53:38.824Z,101045.03
2022-08-09T06:56:06.182Z,101042.13
2022-08-09T07:00:47.654Z,101051.78
2022-08-09T07:01:19.085Z,101051.25
2022-08-09T07:03:51.835Z,101053.44
2022-08-09T07:06:19.947Z,101056.00
2022-08-09T07:08:46.916Z,101059.19
2022-08-09T07:11:17.589Z,101066.94
2022-08-09T07:14:04.562Z,101063.22
2022-08-09T07:16:42.092Z,101060.97
2022-08-09T07:19:22.997Z,101064.34
2022-08-09T07:21:57.345Z,101066.09
2022-08-09T07:24:32.110Z,101065.38
2022-08-09T07:27:10.839Z,101064.13
2022-08-09T07:29:50.771Z,101080.66
2022-08-09T07:32:19.314Z,101073.09
2022-08-09T07:34:49.413Z,101075.75
2022-08-09T07:37:18.676Z,101079.53
2022-08-09T07:39:48.670Z,101077.13
2022-08-09T07:42:15.210Z,101091.47
2022-08-09T07:44:51.841Z,101087.25
2022-08-09T07:47:19.854Z,101089.81
2022-08-09T07:50:05.283Z,101091.38
2022-08-09T07:52:35.674Z,101095.63
2022-08-09T07:55:08.654Z,101096.56
2022-08-09T07:57:35.755Z,101092.44
2022-08-09T08:00:03.962Z,101093.31
2022-08-09T08:02:30.757Z,101096.47
2022-08-09T08:04:57.259Z,101096.47
2022-08-09T08:08:43.499Z,101093.00
2022-08-09T08:10:11.888Z,101091.09
2022-08-09T08:12:43.431Z,101089.47
2022-08-09T08:15:12.229Z,101094.72
2022-08-09T08:17:55.045Z,101092.88
2022-08-09T08:20:30.485Z,101095.03
2022-08-09T08:23:01.473Z,101095.13
2022-08-09T08:25:43.768Z,101097.03
2022-08-09T08:28:11.399Z,101096.03
2022-08-09T08:30:41.441Z,101100.50
2022-08-09T08:33:12.056Z,101098.94
2022-08-09T08:35:58.552Z,101098.03
2022-08-09T08:38:27.888Z,101096.13
2022-08-09T08:40:55.642Z,101099.78
2022-08-09T08:43:23.686Z,101103.31
2022-08-09T08:46:31.898Z,101115.91
2022-08-09T08:48:51.681Z,101112.81
2022-08-09T08:51:20.311Z,101109.84
2022-08-09T08:54:02.599Z,101114.53
2022-08-09T08:56:33.019Z,101107.91
2022-08-09T08:59:01.502Z,101108.28
2022-08-09T09:01:53.151Z,101108.84
2022-08-09T09:04:27.394Z,101110.88
2022-08-09T09:06:56.506Z,101106.16
2022-08-09T09:09:41.170Z,101105.38
2022-08-09T09:12:16.499Z,101100.19
2022-08-09T09:14:44.593Z,101109.16
2022-08-09T09:17:11.409Z,101109.63
2022-08-09T09:19:43.395Z,101107.81
2022-08-09T09:22:12.427Z,101112.03
2022-08-09T09:24:46.172Z,101108.69
2022-08-09T09:28:03.084Z,101117.34
2022-08-09T09:30:14.236Z,101114.59
2022-08-09T09:32:43.190Z,101113.78
2022-08-09T09:35:13.000Z,101125.22
2022-08-09T09:37:45.678Z,101111.56
2022-08-09T09:40:12.463Z,101118.94
2022-08-09T09:42:39.767Z,101118.44
2022-08-09T09:45:14.419Z,101120.19
2022-08-09T09:47:58.672Z,101110.72
2022-08-09T09:50:50.841Z,101107.72
2022-08-09T09:53:43.640Z,101116.03
2022-08-09T09:56:08.239Z,101114.59
2022-08-09T09:58:47.723Z,101108.31
2022-08-09T10:01:37.051Z,101109.59
2022-08-09T10:04:09.702Z,101108.44
2022-08-09T10:06:42.932Z,101101.25
2022-08-09T10:09:11.857Z,101096.44
2022-08-09T10:12:12.378Z,101105.47
2022-08-09T10:14:48.035Z,101113.19
2022-08-09T10:17:39.791Z,101104.25
2022-08-09T10:20:04.126Z,101106.38
2022-08-09T10:22:35.264Z,101095.78
2022-08-09T10:25:10.900Z,101104.28
2022-08-09T10:27:56.002Z,101096.56
2022-08-09T10:34:08.256Z,101089.69
2022-08-09T10:36:00.745Z,101086.63
2022-08-09T10:38:54.314Z,101096.47
2022-08-09T10:41:15.459Z,101094.50
2022-08-09T10:43:50.655Z,101080.19
2022-08-09T10:46:28.089Z,101080.44
2022-08-09T10:49:14.730Z,101082.69
2022-08-09T10:52:05.404Z,101082.09
2022-08-09T10:54:32.465Z,101081.50
2022-08-09T10:57:10.818Z,101072.63
2022-08-09T12:23:08.129Z,101030.88
2022-08-09T12:25:38.402Z,101033.50
2022-08-09T12:29:11.530Z,101033.94
2022-08-09T12:31:10.958Z,101029.81
2022-08-09T12:34:00.871Z,101034.06
2022-08-09T12:36:33.765Z,101034.69
2022-08-09T12:39:02.637Z,101025.38
2022-08-09T12:41:38.321Z,101032.06
2022-08-09T12:44:10.403Z,101021.34
2022-08-09T12:46:41.112Z,101031.75
2022-08-09T12:49:08.701Z,101014.63
2022-08-09T12:52:01.159Z,101015.75
2022-08-09T12:54:21.940Z,101011.59
2022-08-09T12:56:51.353Z,101020.56
2022-08-09T12:59:21.657Z,101012.25
2022-08-09T13:02:00.291Z,101016.84
2022-08-09T13:04:36.913Z,101006.91
2022-08-09T13:07:14.749Z,101015.94
2022-08-09T13:09:43.430Z,100995.38
2022-08-09T13:12:22.194Z,100992.09
2022-08-09T13:14:53.857Z,100996.75
2022-08-09T13:17:43.863Z,100999.03
2022-08-09T13:20:14.016Z,100989.97
2022-08-09T13:23:05.583Z,100993.56
2022-08-09T13:25:54.334Z,100995.19
2022-08-09T13:28:33.753Z,100999.44
2022-08-09T13:32:13.951Z,100997.16
2022-08-09T13:33:54.466Z,100995.38
2022-08-09T13:36:38.385Z,100997.00
2022-08-09T13:41:55.139Z,100995.41
2022-08-09T13:42:01.516Z,101010.50
2022-08-09T13:44:28.976Z,100994.72
2022-08-09T13:47:26.615Z,100997.19
2022-08-09T13:49:57.899Z,100993.81
2022-08-09T13:52:28.117Z,100991.09
2022-08-09T13:54:59.834Z,101007.84
2022-08-09T13:57:37.387Z,101005.47
2022-08-09T14:00:13.917Z,101008.69
2022-08-09T14:03:02.331Z,101002.19
2022-08-09T14:05:58.696Z,101000.16
2022-08-09T14:08:17.605Z,100998.16
2022-08-09T14:10:50.384Z,101002.97
2022-08-09T14:13:21.613Z,101006.16
2022-08-09T14:16:08.971Z,101009.00
2022-08-09T14:18:37.130Z,101012.91
2022-08-09T14:21:03.532Z,101007.56
2022-08-09T14:23:40.738Z,101009.28
2022-08-09T14:26:20.434Z,101010.66
2022-08-09T14:28:46.978Z,101010.19
2022-08-09T14:31:13.851Z,101003.72
2022-08-09T14:33:40.258Z,101012.69
2022-08-09T14:36:19.841Z,101005.81
2022-08-09T14:38:52.939Z,101008.09
2022-08-09T14:41:34.740Z,101003.50
2022-08-09T14:44:06.572Z,100999.59
2022-08-09T14:46:58.475Z,100997.56
2022-08-09T14:49:23.588Z,101004.00
2022-08-09T14:51:50.408Z,101004.06
2022-08-09T14:54:16.943Z,100996.47
2022-08-09T14:56:57.900Z,101001.44
2022-08-09T14:59:25.236Z,101002.59
2022-08-09T15:01:53.596Z,100993.63
2022-08-09T15:04:20.009Z,100993.59
2022-08-09T15:06:49.916Z,100995.78
2022-08-09T15:10:03.602Z,100995.63
2022-08-09T15:12:04.742Z,100991.06
2022-08-09T15:14:34.377Z,100992.47
2022-08-09T15:17:00.875Z,100994.91
2022-08-09T15:19:35.913Z,100991.84
2022-08-09T15:22:03.261Z,100993.81
2022-08-09T15:24:30.001Z,100986.50
2022-08-09T15:26:56.498Z,100994.69
2022-08-09T15:30:59.254Z,100985.25
2022-08-09T15:32:39.090Z,100990.63
2022-08-09T15:35:01.109Z,100988.25
2022-08-09T15:37:56.713Z,100989.94
2022-08-09T15:40:31.972Z,100986.19
2022-08-09T15:43:01.875Z,100992.16
2022-08-09T15:45:29.401Z,100991.69
2022-08-09T15:48:05.425Z,100987.41
2022-08-09T15:50:44.003Z,100990.25
2022-08-09T15:54:02.401Z,100987.75
2022-08-09T15:56:20.985Z,100985.91
2022-08-09T15:58:43.570Z,100978.00
2022-08-09T16:01:10.187Z,100982.94
2022-08-09T16:03:38.745Z,100973.97
2022-08-09T16:06:31.449Z,100973.75
2022-08-09T16:08:56.051Z,100974.25
2022-08-09T16:11:22.777Z,100979.47
2022-08-09T16:14:03.302Z,100975.19
2022-08-09T16:16:32.724Z,100977.72
2022-08-09T16:19:01.412Z,100987.47
2022-08-09T16:21:31.713Z,100972.78
2022-08-09T16:24:02.695Z,100976.69
2022-08-09T16:26:35.085Z,100972.75
2022-08-09T16:29:06.071Z,100972.44
2022-08-09T16:32:10.343Z,100970.78
2022-08-09T16:34:23.924Z,100978.72
2022-08-09T16:36:50.411Z,100970.16
2022-08-09T16:39:16.903Z,100972.53
2022-08-09T16:42:03.527Z,100974.06
2022-08-09T16:44:31.770Z,100972.84
2022-08-09T16:47:03.868Z,100971.31
2022-08-09T16:50:29.325Z,100974.38
2022-08-09T16:52:17.280Z,100980.72
2022-08-09T16:54:45.892Z,100980.56
2022-08-09T16:57:12.326Z,100982.31
2022-08-09T16:59:44.103Z,100982.53
2022-08-09T17:02:17.809Z,100984.16
2022-08-09T17:04:50.881Z,100979.94
2022-08-09T17:08:44.723Z,100981.25
2022-08-09T17:10:06.483Z,100975.72
2022-08-09T17:12:35.607Z,100977.00
2022-08-09T17:15:18.228Z,100975.75
2022-08-09T17:17:51.416Z,100978.94
2022-08-09T17:20:32.308Z,100981.97
2022-08-09T17:23:04.955Z,100977.91
2022-08-09T17:25:37.200Z,100981.84
2022-08-09T17:28:06.097Z,100986.94
2022-08-09T17:30:33.895Z,100984.38
2022-08-09T17:33:05.649Z,100979.41
2022-08-09T17:35:49.100Z,100992.25
2022-08-09T17:38:34.038Z,100990.13
2022-08-09T17:41:03.054Z,100985.06
2022-08-09T17:43:33.739Z,100990.56
2022-08-09T17:46:02.606Z,100990.03
2022-08-09T17:48:30.978Z,100988.41
2022-08-09T17:51:06.556Z,100995.84
2022-08-09T17:53:43.021Z,100985.59
2022-08-09T17:56:10.030Z,100979.56
2022-08-09T17:58:36.574Z,100988.88
2022-08-09T18:01:03.229Z,100987.47
2022-08-09T18:03:30.367Z,100987.06
2022-08-09T18:05:58.191Z,100986.44
2022-08-09T18:08:28.003Z,100994.69
2022-08-09T18:11:01.859Z,100993.19
2022-08-09T18:13:43.073Z,100990.09
2022-08-09T18:16:16.943Z,100984.34
2022-08-09T18:18:56.125Z,100982.22
2022-08-09T18:21:24.211Z,100983.56
2022-08-09T18:24:09.633Z,100988.34
2022-08-09T18:26:38.360Z,100989.72
2022-08-09T18:30:42.269Z,100988.13
2022-08-09T18:32:00.126Z,100994.53
2022-08-09T18:34:28.983Z,100994.72
2022-08-09T18:36:55.585Z,101004.81
2022-08-09T18:39:24.166Z,100996.22
2022-08-09T18:41:53.040Z,100994.00
2022-08-09T18:44:23.002Z,100998.84
2022-08-09T18:47:07.538Z,101005.38
2022-08-09T18:49:41.674Z,101007.47
2022-08-09T18:52:11.617Z,101010.34
2022-08-09T18:54:39.066Z,101015.09
2022-08-09T18:57:08.762Z,101015.38
2022-08-09T18:59:48.848Z,101022.03
2022-08-09T19:02:18.691Z,101019.81
2022-08-09T19:04:47.542Z,101019.09
2022-08-09T19:07:16.245Z,101023.94
2022-08-09T19:10:16.986Z,101010.84
2022-08-09T19:12:32.320Z,101019.94
2022-08-09T19:15:06.276Z,101027.31
2022-08-09T19:17:55.032Z,101025.75
2022-08-09T19:20:19.457Z,101026.91
2022-08-09T19:22:54.248Z,101040.50
2022-08-09T19:25:41.951Z,101033.56
2022-08-09T19:28:08.500Z,101041.75
2022-08-09T19:30:40.339Z,101032.94
2022-08-09T19:33:17.960Z,101037.53
2022-08-09T19:35:56.911Z,101035.97
2022-08-09T19:38:25.619Z,101029.03
2022-08-09T19:40:53.046Z,101029.19
2022-08-09T19:43:57.868Z,101030.28
2022-08-09T19:46:08.553Z,101038.44
2022-08-09T19:49:01.625Z,101041.25
2022-08-09T19:51:27.769Z,101036.09
2022-08-09T19:53:57.874Z,101036.16
2022-08-09T19:56:29.037Z,101046.00
2022-08-09T19:59:18.505Z,101045.09
2022-08-09T20:01:52.497Z,101045.16
2022-08-09T20:04:36.433Z,101047.03
2022-08-09T20:07:06.281Z,101044.47
2022-08-09T20:09:45.184Z,101051.72
2022-08-09T20:12:29.947Z,101045.53
2022-08-09T20:15:04.469Z,101049.09
2022-08-09T20:17:41.449Z,101052.72
2022-08-09T20:20:14.588Z,101049.25
2022-08-09T20:22:44.569Z,101055.50
2022-08-09T20:25:12.860Z,101052.03
2022-08-09T20:27:43.142Z,101061.94
2022-08-09T20:30:12.740Z,101062.03
2022-08-09T20:32:45.453Z,101062.03
2022-08-09T20:35:15.953Z,101061.06
2022-08-09T20:38:22.171Z,101052.22
2022-08-09T20:40:30.174Z,101061.13
2022-08-09T20:42:59.799Z,101056.69
2022-08-09T20:46:01.508Z,101059.38
2022-08-09T20:48:13.368Z,101063.88
2022-08-09T20:50:49.715Z,101064.84
2022-08-09T20:53:36.770Z,101052.56
2022-08-09T20:56:05.646Z,101060.56
2022-08-09T20:58:33.204Z,101061.50
2022-08-09T21:01:14.024Z,101060.72
2022-08-09T21:05:49.486Z,101060.78
2022-08-09T21:06:35.153Z,101067.97
2022-08-09T21:09:02.244Z,101073.31
2022-08-09T21:14:15.489Z,101069.91
2022-08-09T21:16:43.770Z,101073.50
2022-08-09T21:20:19.213Z,101070.06
2022-08-09T21:21:59.123Z,101078.13
2022-08-09T21:24:28.845Z,101079.97
2022-08-09T21:27:01.072Z,101074.69
2022-08-09T21:29:49.307Z,101072.09
2022-08-09T21:32:18.635Z,101074.00
2022-08-09T21:34:48.608Z,101071.41
2022-08-09T21:37:18.024Z,101082.91
2022-08-09T21:39:45.100Z,101082.97
2022-08-09T21:42:16.538Z,101084.72
2022-08-09T21:44:43.645Z,101076.75
2022-08-09T21:47:11.224Z,101086.50
2022-08-09T21:49:44.379Z,101075.94
2022-08-09T21:52:16.342Z,101078.63
2022-08-09T21:54:46.089Z,101072.41
2022-08-09T21:57:37.170Z,101069.84
2022-08-09T21:59:59.301Z,101070.75
2022-08-09T22:02:36.180Z,101075.19
2022-08-09T22:05:16.822Z,101077.88
2022-08-09T22:07:52.090Z,101081.47
2022-08-09T22:10:22.901Z,101078.84
2022-08-09T22:12:50.323Z,101078.91
2022-08-09T22:15:16.945Z,101077.19
2022-08-09T22:17:46.214Z,101078.13
2022-08-09T22:20:17.058Z,101085.22
2022-08-09T22:22:48.776Z,101094.13
2022-08-09T22:26:06.056Z,101096.00
2022-08-09T22:28:01.639Z,101087.28
2022-08-09T22:30:33.811Z,101094.38
2022-08-09T22:33:00.223Z,101099.75
2022-08-09T22:36:02.531Z,101095.34
2022-08-09T22:38:15.020Z,101087.41
2022-08-09T22:40:49.276Z,101098.88
2022-08-09T22:44:01.691Z,101097.97
2022-08-09T22:48:10.228Z,101091.72
2022-08-09T22:49:01.905Z,101096.09
2022-08-09T22:51:38.333Z,101084.63
2022-08-09T22:54:04.931Z,101084.63
2022-08-09T22:56:34.738Z,101089.94
2022-08-09T22:59:06.055Z,101084.63
2022-08-09T23:01:51.352Z,101084.63
2022-08-09T23:04:18.051Z,101091.69
2022-08-09T23:07:03.269Z,101087.28
2022-08-09T23:09:37.856Z,101082.84
2022-08-09T23:12:04.549Z,101093.50
2022-08-09T23:14:41.694Z,101090.88
2022-08-09T23:17:09.599Z,101091.75
2022-08-09T23:20:06.883Z,101092.63
2022-08-09T23:22:23.899Z,101095.31
2022-08-09T23:24:50.314Z,101091.81
2022-08-09T23:27:16.715Z,101093.56
2022-08-09T23:29:43.323Z,101090.06
2022-08-09T23:32:09.855Z,101096.28
2022-08-09T23:34:36.781Z,101094.53
2022-08-09T23:37:04.062Z,101099.84
2022-08-09T23:39:30.499Z,101092.75
2022-08-09T23:41:56.974Z,101103.38
2022-08-09T23:44:23.369Z,101100.69
2022-08-09T23:46:52.734Z,101100.72
2022-08-09T23:49:24.580Z,101104.25
2022-08-09T23:51:52.044Z,101093.63
2022-08-09T23:54:20.928Z,101095.34
2022-08-09T23:56:56.246Z,101099.78
2022-08-09T23:59:24.970Z,101098.94
